sensor_id;sensor_type;location;lat;lon;timestamp;pressure;altitude;pressure_sealevel;temperature;humidity
55070;BME280;40967;52.070;8.596;2023-03-13T00:00:15;99387.78;;;8.43;100.00
55070;BME280;40967;52.070;8.596;2023-03-13T00:02:41;99388.28;;;8.50;100.00
55070;BME280;40967;52.070;8.596;2023-03-13T00:05:10;99379.13;;;8.46;99.74
55070;BME280;40967;52.070;8.596;2023-03-13T00:07:35;99383.69;;;8.50;99.89
55070;BME280;40967;52.070;8.596;2023-03-13T00:10:01;99371.50;;;8.53;99.52
55070;BME280;40967;52.070;8.596;2023-03-13T00:12:26;99363.19;;;8.44;99.50
55070;BME280;40967;52.070;8.596;2023-03-13T00:14:51;99350.00;;;8.38;99.35
55070;BME280;40967;52.070;8.596;2023-03-13T00:17:16;99362.28;;;8.54;99.04
55070;BME280;40967;52.070;8.596;2023-03-13T00:19:42;99353.09;;;8.55;98.83
55070;BME280;40967;52.070;8.596;2023-03-13T00:22:07;99346.88;;;8.54;98.33
55070;BME280;40967;52.070;8.596;2023-03-13T00:24:33;99340.09;;;8.57;98.78
55070;BME280;40967;52.070;8.596;2023-03-13T00:26:58;99346.88;;;8.54;98.66
55070;BME280;40967;52.070;8.596;2023-03-13T00:29:28;99338.50;;;8.56;98.34
55070;BME280;40967;52.070;8.596;2023-03-13T00:31:53;99334.19;;;8.55;98.51
55070;BME280;40967;52.070;8.596;2023-03-13T00:34:19;99330.91;;;8.58;98.24
55070;BME280;40967;52.070;8.596;2023-03-13T00:36:44;99336.84;;;8.60;98.17
55070;BME280;40967;52.070;8.596;2023-03-13T00:39:09;99348.44;;;8.60;98.55
55070;BME280;40967;52.070;8.596;2023-03-13T00:41:35;99323.38;;;8.55;98.66
55070;BME280;40967;52.070;8.596;2023-03-13T00:44:01;99331.69;;;8.58;98.43
55070;BME280;40967;52.070;8.596;2023-03-13T00:46:28;99330.31;;;8.61;97.98
55070;BME280;40967;52.070;8.596;2023-03-13T00:48:54;99320.63;;;8.60;98.26
55070;BME280;40967;52.070;8.596;2023-03-13T00:51:21;99304.22;;;8.51;97.81
55070;BME280;40967;52.070;8.596;2023-03-13T00:53:48;99311.69;;;8.59;98.23
55070;BME280;40967;52.070;8.596;2023-03-13T00:56:15;99313.56;;;8.59;98.11
55070;BME280;40967;52.070;8.596;2023-03-13T00:58:43;99306.28;;;8.59;97.67
55070;BME280;40967;52.070;8.596;2023-03-13T01:03:39;99308.47;;;8.57;97.46
55070;BME280;40967;52.070;8.596;2023-03-13T01:06:07;99298.22;;;8.54;97.12
55070;BME280;40967;52.070;8.596;2023-03-13T01:08:33;99282.81;;;8.55;97.10
55070;BME280;40967;52.070;8.596;2023-03-13T01:11:00;99287.41;;;8.54;96.94
55070;BME280;40967;52.070;8.596;2023-03-13T01:13:28;99294.38;;;8.60;96.74
55070;BME280;40967;52.070;8.596;2023-03-13T01:15:54;99281.13;;;8.59;96.62
55070;BME280;40967;52.070;8.596;2023-03-13T01:18:21;99282.47;;;8.61;96.82
55070;BME280;40967;52.070;8.596;2023-03-13T01:20:47;99275.44;;;8.60;96.49
55070;BME280;40967;52.070;8.596;2023-03-13T01:23:12;99275.66;;;8.64;96.54
55070;BME280;40967;52.070;8.596;2023-03-13T01:25:38;99265.66;;;8.64;96.26
55070;BME280;40967;52.070;8.596;2023-03-13T01:28:04;99244.69;;;8.56;96.25
55070;BME280;40967;52.070;8.596;2023-03-13T01:30:30;99257.78;;;8.68;96.09
55070;BME280;40967;52.070;8.596;2023-03-13T01:32:55;99249.97;;;8.66;96.22
55070;BME280;40967;52.070;8.596;2023-03-13T01:35:21;99238.63;;;8.64;96.08
55070;BME280;40967;52.070;8.596;2023-03-13T01:37:46;99236.16;;;8.68;96.16
55070;BME280;40967;52.070;8.596;2023-03-13T01:40:12;99180.78;;;8.42;96.31
55070;BME280;40967;52.070;8.596;2023-03-13T01:42:57;99224.75;;;8.71;97.17
55070;BME280;40967;52.070;8.596;2023-03-13T01:48:16;99228.88;;;8.68;98.31
55070;BME280;40967;52.070;8.596;2023-03-13T01:50:42;99212.69;;;8.63;99.65
55070;BME280;40967;52.070;8.596;2023-03-13T01:53:07;99216.47;;;8.62;100.00
55070;BME280;40967;52.070;8.596;2023-03-13T01:55:33;99202.97;;;8.62;100.00
55070;BME280;40967;52.070;8.596;2023-03-13T01:57:59;99184.41;;;8.56;100.00
55070;BME280;40967;52.070;8.596;2023-03-13T02:00:31;99166.13;;;8.48;100.00
55070;BME280;40967;52.070;8.596;2023-03-13T02:03:05;99150.22;;;8.41;100.00
55070;BME280;40967;52.070;8.596;2023-03-13T02:05:32;99141.56;;;8.44;100.00
55070;BME280;40967;52.070;8.596;2023-03-13T02:08:05;99152.25;;;8.54;100.00
55070;BME280;40967;52.070;8.596;2023-03-13T02:10:33;99132.88;;;8.47;100.00
55070;BME280;40967;52.070;8.596;2023-03-13T02:13:02;99133.41;;;8.49;100.00
55070;BME280;40967;52.070;8.596;2023-03-13T02:15:29;99117.72;;;8.46;100.00
55070;BME280;40967;52.070;8.596;2023-03-13T02:17:56;99112.91;;;8.43;100.00
55070;BME280;40967;52.070;8.596;2023-03-13T02:20:22;99097.00;;;8.42;100.00
55070;BME280;40967;52.070;8.596;2023-03-13T02:28:10;99078.38;;;8.40;100.00
55070;BME280;40967;52.070;8.596;2023-03-13T02:30:37;99078.38;;;8.40;100.00
55070;BME280;40967;52.070;8.596;2023-03-13T02:33:04;99067.84;;;8.39;100.00
55070;BME280;40967;52.070;8.596;2023-03-13T02:35:30;99050.00;;;8.38;100.00
55070;BME280;40967;52.070;8.596;2023-03-13T02:38:03;99041.41;;;8.36;100.00
55070;BME280;40967;52.070;8.596;2023-03-13T02:40:32;99040.59;;;8.35;100.00
55070;BME280;40967;52.070;8.596;2023-03-13T02:43:00;99023.13;;;8.28;100.00
55070;BME280;40967;52.070;8.596;2023-03-13T02:45:26;99027.38;;;8.34;100.00
55070;BME280;40967;52.070;8.596;2023-03-13T02:47:52;99018.47;;;8.33;100.00
55070;BME280;40967;52.070;8.596;2023-03-13T02:50:17;99014.38;;;8.36;100.00
55070;BME280;40967;52.070;8.596;2023-03-13T02:52:54;99011.38;;;8.37;100.00
55070;BME280;40967;52.070;8.596;2023-03-13T02:55:28;99001.97;;;8.35;100.00
55070;BME280;40967;52.070;8.596;2023-03-13T02:57:55;98986.78;;;8.39;100.00
55070;BME280;40967;52.070;8.596;2023-03-13T03:00:20;98985.97;;;8.38;100.00
55070;BME280;40967;52.070;8.596;2023-03-13T03:02:51;98984.28;;;8.42;100.00
55070;BME280;40967;52.070;8.596;2023-03-13T03:05:16;98983.19;;;8.43;100.00
55070;BME280;40967;52.070;8.596;2023-03-13T03:07:42;98970.78;;;8.42;100.00
55070;BME280;40967;52.070;8.596;2023-03-13T03:10:07;98969.66;;;8.43;100.00
55070;BME280;40967;52.070;8.596;2023-03-13T03:12:33;98956.53;;;8.37;100.00
55070;BME280;40967;52.070;8.596;2023-03-13T03:14:58;98965.38;;;8.42;100.00
55070;BME280;40967;52.070;8.596;2023-03-13T03:17:23;98955.41;;;8.38;100.00
55070;BME280;40967;52.070;8.596;2023-03-13T03:19:49;98954.34;;;8.39;100.00
55070;BME280;40967;52.070;8.596;2023-03-13T03:22:14;98956.22;;;8.38;100.00
55070;BME280;40967;52.070;8.596;2023-03-13T03:24:39;98934.19;;;8.31;100.00
55070;BME280;40967;52.070;8.596;2023-03-13T03:27:05;98941.22;;;8.32;100.00
55070;BME280;40967;52.070;8.596;2023-03-13T03:29:30;98923.78;;;8.20;100.00
55070;BME280;40967;52.070;8.596;2023-03-13T03:31:56;98935.81;;;8.32;100.00
55070;BME280;40967;52.070;8.596;2023-03-13T03:34:21;98941.47;;;8.31;100.00
55070;BME280;40967;52.070;8.596;2023-03-13T03:36:47;98937.47;;;8.28;100.00
55070;BME280;40967;52.070;8.596;2023-03-13T03:39:12;98944.19;;;8.31;100.00
55070;BME280;40967;52.070;8.596;2023-03-13T03:41:38;98936.88;;;8.31;100.00
55070;BME280;40967;52.070;8.596;2023-03-13T03:44:03;98925.34;;;8.26;100.00
55070;BME280;40967;52.070;8.596;2023-03-13T03:46:29;98919.06;;;8.30;100.00
55070;BME280;40967;52.070;8.596;2023-03-13T03:48:54;98901.84;;;8.26;100.00
55070;BME280;40967;52.070;8.596;2023-03-13T03:51:20;98899.88;;;8.32;100.00
55070;BME280;40967;52.070;8.596;2023-03-13T03:53:46;98907.66;;;8.33;100.00
55070;BME280;40967;52.070;8.596;2023-03-13T03:56:12;98891.84;;;8.27;100.00
55070;BME280;40967;52.070;8.596;2023-03-13T03:58:37;98886.13;;;8.28;100.00
55070;BME280;40967;52.070;8.596;2023-03-13T04:01:03;98887.66;;;8.34;100.00
55070;BME280;40967;52.070;8.596;2023-03-13T04:03:28;98886.56;;;8.35;100.00
55070;BME280;40967;52.070;8.596;2023-03-13T04:05:54;98879.75;;;8.38;100.00
55070;BME280;40967;52.070;8.596;2023-03-13T04:08:19;98874.94;;;8.35;100.00
55070;BME280;40967;52.070;8.596;2023-03-13T04:10:45;98882.47;;;8.38;100.00
55070;BME280;40967;52.070;8.596;2023-03-13T04:13:10;98872.25;;;8.35;100.00
55070;BME280;40967;52.070;8.596;2023-03-13T04:15:37;98874.06;;;8.39;100.00
55070;BME280;40967;52.070;8.596;2023-03-13T04:18:03;98867.28;;;8.42;100.00
55070;BME280;40967;52.070;8.596;2023-03-13T04:20:28;98876.97;;;8.43;100.00
55070;BME280;40967;52.070;8.596;2023-03-13T04:22:54;98853.16;;;8.45;100.00
55070;BME280;40967;52.070;8.596;2023-03-13T04:25:19;98836.94;;;8.45;100.00
55070;BME280;40967;52.070;8.596;2023-03-13T04:27:45;98837.25;;;8.43;100.00
55070;BME280;40967;52.070;8.596;2023-03-13T04:30:10;98847.44;;;8.46;100.00
55070;BME280;40967;52.070;8.596;2023-03-13T04:32:36;98855.56;;;8.46;100.00
55070;BME280;40967;52.070;8.596;2023-03-13T04:35:01;98852.81;;;8.51;100.00
55070;BME280;40967;52.070;8.596;2023-03-13T04:37:27;98831.75;;;8.48;100.00
55070;BME280;40967;52.070;8.596;2023-03-13T04:39:52;98835.78;;;8.51;100.00
55070;BME280;40967;52.070;8.596;2023-03-13T04:42:17;98815.66;;;8.57;100.00
55070;BME280;40967;52.070;8.596;2023-03-13T04:44:43;98832.06;;;8.60;100.00
55070;BME280;40967;52.070;8.596;2023-03-13T04:47:08;98815.84;;;8.60;100.00
55070;BME280;40967;52.070;8.596;2023-03-13T04:49:33;98825.50;;;8.66;100.00
55070;BME280;40967;52.070;8.596;2023-03-13T04:51:59;98833.81;;;8.70;100.00
55070;BME280;40967;52.070;8.596;2023-03-13T04:54:24;98835.59;;;8.74;100.00
55070;BME280;40967;52.070;8.596;2023-03-13T04:56:50;98802.25;;;8.65;100.00
55070;BME280;40967;52.070;8.596;2023-03-13T04:59:15;98803.25;;;8.69;100.00
55070;BME280;40967;52.070;8.596;2023-03-13T05:01:41;98809.88;;;8.77;100.00
55070;BME280;40967;52.070;8.596;2023-03-13T05:04:08;98818.72;;;8.82;100.00
55070;BME280;40967;52.070;8.596;2023-03-13T05:06:34;98813.00;;;8.84;100.00
55070;BME280;40967;52.070;8.596;2023-03-13T05:08:59;98797.06;;;8.82;100.00
55070;BME280;40967;52.070;8.596;2023-03-13T05:11:25;98798.88;;;8.87;100.00
55070;BME280;40967;52.070;8.596;2023-03-13T05:13:53;98795.66;;;8.85;100.00
55070;BME280;40967;52.070;8.596;2023-03-13T05:16:18;98800.97;;;8.90;100.00
55070;BME280;40967;52.070;8.596;2023-03-13T05:18:44;98795.75;;;8.93;100.00
55070;BME280;40967;52.070;8.596;2023-03-13T05:21:09;98801.06;;;8.98;100.00
55070;BME280;40967;52.070;8.596;2023-03-13T05:23:34;98783.16;;;9.02;100.00
55070;BME280;40967;52.070;8.596;2023-03-13T05:26:00;98792.38;;;9.01;100.00
55070;BME280;40967;52.070;8.596;2023-03-13T05:28:26;98780.94;;;9.04;100.00
55070;BME280;40967;52.070;8.596;2023-03-13T05:30:51;98776.03;;;9.06;100.00
55070;BME280;40967;52.070;8.596;2023-03-13T05:33:19;98783.53;;;9.09;100.00
55070;BME280;40967;52.070;8.596;2023-03-13T05:35:45;98772.72;;;9.09;100.00
55070;BME280;40967;52.070;8.596;2023-03-13T05:38:11;98773.22;;;9.11;100.00
55070;BME280;40967;52.070;8.596;2023-03-13T05:40:37;98771.53;;;9.15;100.00
55070;BME280;40967;52.070;8.596;2023-03-13T05:43:03;98772.00;;;9.17;100.00
55070;BME280;40967;52.070;8.596;2023-03-13T05:45:28;98768.22;;;9.18;100.00
55070;BME280;40967;52.070;8.596;2023-03-13T05:47:54;98747.19;;;9.15;100.00
55070;BME280;40967;52.070;8.596;2023-03-13T05:50:20;98759.47;;;9.22;100.00
55070;BME280;40967;52.070;8.596;2023-03-13T05:52:45;98757.16;;;9.29;100.00
55070;BME280;40967;52.070;8.596;2023-03-13T05:55:12;98750.81;;;9.33;100.00
55070;BME280;40967;52.070;8.596;2023-03-13T05:57:38;98747.16;;;9.29;100.00
55070;BME280;40967;52.070;8.596;2023-03-13T06:00:04;98744.22;;;9.39;100.00
55070;BME280;40967;52.070;8.596;2023-03-13T06:02:30;98729.88;;;9.39;100.00
55070;BME280;40967;52.070;8.596;2023-03-13T06:04:55;98739.38;;;9.50;100.00
55070;BME280;40967;52.070;8.596;2023-03-13T06:07:21;98728.03;;;9.48;100.00
55070;BME280;40967;52.070;8.596;2023-03-13T06:09:46;98732.13;;;9.59;100.00
55070;BME280;40967;52.070;8.596;2023-03-13T06:12:12;98727.22;;;9.61;100.00
55070;BME280;40967;52.070;8.596;2023-03-13T06:14:37;98731.38;;;9.67;100.00
55070;BME280;40967;52.070;8.596;2023-03-13T06:17:04;98743.53;;;9.69;100.00
55070;BME280;40967;52.070;8.596;2023-03-13T06:19:30;98733.47;;;9.70;100.00
55070;BME280;40967;52.070;8.596;2023-03-13T06:21:56;98727.94;;;9.75;100.00
55070;BME280;40967;52.070;8.596;2023-03-13T06:24:21;98740.75;;;9.83;100.00
55070;BME280;40967;52.070;8.596;2023-03-13T06:26:48;98745.94;;;9.93;100.00
55070;BME280;40967;52.070;8.596;2023-03-13T06:29:13;98739.88;;;9.96;100.00
55070;BME280;40967;52.070;8.596;2023-03-13T06:31:39;98732.50;;;9.88;100.00
55070;BME280;40967;52.070;8.596;2023-03-13T06:34:04;98737.06;;;10.01;100.00
55070;BME280;40967;52.070;8.596;2023-03-13T06:36:30;98722.91;;;10.04;100.00
55070;BME280;40967;52.070;8.596;2023-03-13T06:38:55;98740.34;;;10.11;100.00
55070;BME280;40967;52.070;8.596;2023-03-13T06:41:21;98746.56;;;10.12;100.00
55070;BME280;40967;52.070;8.596;2023-03-13T06:43:47;98744.66;;;10.12;100.00
55070;BME280;40967;52.070;8.596;2023-03-13T06:46:18;98737.22;;;10.18;100.00
55070;BME280;40967;52.070;8.596;2023-03-13T06:48:45;98744.84;;;10.16;100.00
55070;BME280;40967;52.070;8.596;2023-03-13T06:51:12;98734.50;;;10.18;100.00
55070;BME280;40967;52.070;8.596;2023-03-13T06:53:37;98745.22;;;10.23;100.00
55070;BME280;40967;52.070;8.596;2023-03-13T06:56:03;98731.47;;;10.19;100.00
55070;BME280;40967;52.070;8.596;2023-03-13T06:58:29;98739.66;;;10.28;100.00
55070;BME280;40967;52.070;8.596;2023-03-13T07:00:54;98747.66;;;10.33;100.00
55070;BME280;40967;52.070;8.596;2023-03-13T07:03:20;98744.13;;;10.32;100.00
55070;BME280;40967;52.070;8.596;2023-03-13T07:05:45;98727.50;;;10.25;100.00
55070;BME280;40967;52.070;8.596;2023-03-13T07:08:11;98738.09;;;10.36;100.00
55070;BME280;40967;52.070;8.596;2023-03-13T07:10:37;98741.78;;;10.40;100.00
55070;BME280;40967;52.070;8.596;2023-03-13T07:13:02;98740.97;;;10.39;100.00
55070;BME280;40967;52.070;8.596;2023-03-13T07:15:28;98758.22;;;10.43;100.00
55070;BME280;40967;52.070;8.596;2023-03-13T07:17:55;98746.75;;;10.46;100.00
55070;BME280;40967;52.070;8.596;2023-03-13T07:20:21;98737.34;;;10.44;100.00
55070;BME280;40967;52.070;8.596;2023-03-13T07:22:50;98737.53;;;10.47;100.00
55070;BME280;40967;52.070;8.596;2023-03-13T07:25:16;98742.63;;;10.49;100.00
55070;BME280;40967;52.070;8.596;2023-03-13T07:27:42;98748.41;;;10.56;100.00
55070;BME280;40967;52.070;8.596;2023-03-13T07:30:08;98748.09;;;10.57;100.00
55070;BME280;40967;52.070;8.596;2023-03-13T07:32:33;98736.75;;;10.55;100.00
55070;BME280;40967;52.070;8.596;2023-03-13T07:34:59;98735.50;;;10.53;100.00
55070;BME280;40967;52.070;8.596;2023-03-13T07:37:24;98755.47;;;10.65;100.00
55070;BME280;40967;52.070;8.596;2023-03-13T07:39:50;98752.75;;;10.65;100.00
55070;BME280;40967;52.070;8.596;2023-03-13T07:42:15;98749.44;;;10.68;100.00
55070;BME280;40967;52.070;8.596;2023-03-13T07:44:41;98744.00;;;10.68;100.00
55070;BME280;40967;52.070;8.596;2023-03-13T07:47:06;98742.56;;;10.71;100.00
55070;BME280;40967;52.070;8.596;2023-03-13T07:49:32;98737.63;;;10.73;100.00
55070;BME280;40967;52.070;8.596;2023-03-13T07:51:58;98739.41;;;10.77;100.00
55070;BME280;40967;52.070;8.596;2023-03-13T07:54:23;98721.38;;;10.81;100.00
55070;BME280;40967;52.070;8.596;2023-03-13T07:56:48;98717.41;;;10.79;100.00
55070;BME280;40967;52.070;8.596;2023-03-13T07:59:15;98731.00;;;10.87;100.00
55070;BME280;40967;52.070;8.596;2023-03-13T08:01:40;98723.00;;;10.82;100.00
55070;BME280;40967;52.070;8.596;2023-03-13T08:04:06;98715.22;;;10.89;100.00
55070;BME280;40967;52.070;8.596;2023-03-13T08:06:32;98711.84;;;10.92;100.00
55070;BME280;40967;52.070;8.596;2023-03-13T08:09:00;98710.25;;;10.91;100.00
55070;BME280;40967;52.070;8.596;2023-03-13T08:11:27;98692.69;;;10.89;100.00
55070;BME280;40967;52.070;8.596;2023-03-13T08:13:53;98694.13;;;10.95;100.00
55070;BME280;40967;52.070;8.596;2023-03-13T08:16:21;98705.16;;;10.98;100.00
55070;BME280;40967;52.070;8.596;2023-03-13T08:18:49;98676.59;;;10.92;100.00
55070;BME280;40967;52.070;8.596;2023-03-13T08:21:21;98687.13;;;11.02;100.00
55070;BME280;40967;52.070;8.596;2023-03-13T08:23:47;98691.13;;;11.05;100.00
55070;BME280;40967;52.070;8.596;2023-03-13T08:26:18;98669.59;;;11.08;100.00
55070;BME280;40967;52.070;8.596;2023-03-13T08:28:45;98660.81;;;11.03;100.00
55070;BME280;40967;52.070;8.596;2023-03-13T08:31:19;98674.06;;;11.13;100.00
55070;BME280;40967;52.070;8.596;2023-03-13T08:33:46;98662.72;;;11.19;100.00
55070;BME280;40967;52.070;8.596;2023-03-13T08:38:42;98661.13;;;11.27;100.00
55070;BME280;40967;52.070;8.596;2023-03-13T08:41:11;98669.13;;;11.32;100.00
55070;BME280;40967;52.070;8.596;2023-03-13T08:43:37;98654.13;;;11.34;100.00
55070;BME280;40967;52.070;8.596;2023-03-13T08:46:03;98665.00;;;11.43;100.00
55070;BME280;40967;52.070;8.596;2023-03-13T08:48:28;98658.09;;;11.45;100.00
55070;BME280;40967;52.070;8.596;2023-03-13T08:51:09;98652.34;;;11.47;100.00
55070;BME280;40967;52.070;8.596;2023-03-13T08:53:36;98657.00;;;11.55;100.00
55070;BME280;40967;52.070;8.596;2023-03-13T08:56:02;98649.47;;;11.52;100.00
55070;BME280;40967;52.070;8.596;2023-03-13T08:58:29;98660.31;;;11.61;100.00
55070;BME280;40967;52.070;8.596;2023-03-13T09:01:03;98654.88;;;11.61;100.00
55070;BME280;40967;52.070;8.596;2023-03-13T09:03:29;98644.50;;;11.63;100.00
55070;BME280;40967;52.070;8.596;2023-03-13T09:05:56;98652.06;;;11.66;100.00
55070;BME280;40967;52.070;8.596;2023-03-13T09:08:22;98636.53;;;11.66;100.00
55070;BME280;40967;52.070;8.596;2023-03-13T09:10:57;98649.50;;;11.78;100.00
55070;BME280;40967;52.070;8.596;2023-03-13T09:13:24;98641.50;;;11.81;100.00
55070;BME280;40967;52.070;8.596;2023-03-13T09:15:54;98644.81;;;11.87;100.00
55070;BME280;40967;52.070;8.596;2023-03-13T09:18:20;98639.69;;;11.85;100.00
55070;BME280;40967;52.070;8.596;2023-03-13T09:20:45;98638.94;;;11.85;100.00
55070;BME280;40967;52.070;8.596;2023-03-13T09:23:11;98662.38;;;11.98;100.00
55070;BME280;40967;52.070;8.596;2023-03-13T09:25:37;98642.56;;;11.97;100.00
55070;BME280;40967;52.070;8.596;2023-03-13T09:28:03;98654.38;;;12.01;100.00
55070;BME280;40967;52.070;8.596;2023-03-13T09:30:29;98664.41;;;12.09;100.00
55070;BME280;40967;52.070;8.596;2023-03-13T09:32:54;98657.72;;;12.07;100.00
55070;BME280;40967;52.070;8.596;2023-03-13T09:35:20;98675.00;;;12.11;100.00
55070;BME280;40967;52.070;8.596;2023-03-13T09:37:45;98670.00;;;12.13;100.00
55070;BME280;40967;52.070;8.596;2023-03-13T09:40:17;98664.13;;;12.11;100.00
55070;BME280;40967;52.070;8.596;2023-03-13T09:42:58;98656.59;;;12.08;100.00
55070;BME280;40967;52.070;8.596;2023-03-13T09:47:58;98656.75;;;12.11;100.00
55070;BME280;40967;52.070;8.596;2023-03-13T09:50:33;98656.13;;;12.06;100.00
55070;BME280;40967;52.070;8.596;2023-03-13T09:53:05;98647.97;;;12.06;100.00
55070;BME280;40967;52.070;8.596;2023-03-13T09:55:33;98640.94;;;12.05;100.00
55070;BME280;40967;52.070;8.596;2023-03-13T09:58:21;98617.63;;;11.95;100.00
55070;BME280;40967;52.070;8.596;2023-03-13T10:01:08;98643.16;;;12.11;100.00
55070;BME280;40967;52.070;8.596;2023-03-13T10:03:46;98634.03;;;12.16;100.00
55070;BME280;40967;52.070;8.596;2023-03-13T10:06:18;98628.56;;;12.24;100.00
55070;BME280;40967;52.070;8.596;2023-03-13T10:08:44;98619.72;;;12.36;100.00
55070;BME280;40967;52.070;8.596;2023-03-13T10:11:27;98611.19;;;12.46;100.00
55070;BME280;40967;52.070;8.596;2023-03-13T10:14:08;98623.06;;;12.71;100.00
55070;BME280;40967;52.070;8.596;2023-03-13T10:19:29;98591.00;;;13.05;100.00
55070;BME280;40967;52.070;8.596;2023-03-13T10:21:56;98603.47;;;13.27;100.00
55070;BME280;40967;52.070;8.596;2023-03-13T10:24:31;98590.03;;;13.42;100.00
55070;BME280;40967;52.070;8.596;2023-03-13T10:26:57;98573.66;;;13.63;100.00
55070;BME280;40967;52.070;8.596;2023-03-13T10:29:24;98579.03;;;13.84;100.00
55070;BME280;40967;52.070;8.596;2023-03-13T10:34:17;98569.31;;;14.07;98.86
55070;BME280;40967;52.070;8.596;2023-03-13T10:36:55;98583.00;;;14.31;98.70
55070;BME280;40967;52.070;8.596;2023-03-13T10:39:24;98585.72;;;14.43;97.52
55070;BME280;40967;52.070;8.596;2023-03-13T10:41:56;98591.66;;;14.57;95.96
55070;BME280;40967;52.070;8.596;2023-03-13T10:44:29;98584.25;;;14.57;95.05
55070;BME280;40967;52.070;8.596;2023-03-13T10:46:58;98567.53;;;14.47;94.47
55070;BME280;40967;52.070;8.596;2023-03-13T10:49:26;98587.09;;;14.49;94.50
55070;BME280;40967;52.070;8.596;2023-03-13T10:52:00;98590.63;;;14.49;93.96
55070;BME280;40967;52.070;8.596;2023-03-13T10:54:31;98591.88;;;14.52;93.79
55070;BME280;40967;52.070;8.596;2023-03-13T10:59:47;98568.44;;;14.51;91.85
55070;BME280;40967;52.070;8.596;2023-03-13T11:02:37;98574.00;;;14.54;89.77
55070;BME280;40967;52.070;8.596;2023-03-13T11:07:53;98562.53;;;14.61;88.98
55070;BME280;40967;52.070;8.596;2023-03-13T11:10:27;98560.13;;;14.71;89.59
55070;BME280;40967;52.070;8.596;2023-03-13T11:12:55;98557.16;;;14.76;89.49
55070;BME280;40967;52.070;8.596;2023-03-13T11:15:29;98567.38;;;14.79;89.25
55070;BME280;40967;52.070;8.596;2023-03-13T11:18:27;98561.31;;;14.98;86.64
55070;BME280;40967;52.070;8.596;2023-03-13T11:20:59;98549.22;;;15.11;85.97
55070;BME280;40967;52.070;8.596;2023-03-13T11:29:19;98539.56;;;15.41;83.90
55070;BME280;40967;52.070;8.596;2023-03-13T11:31:55;98521.31;;;15.45;82.94
55070;BME280;40967;52.070;8.596;2023-03-13T11:37:02;98529.81;;;15.56;80.88
55070;BME280;40967;52.070;8.596;2023-03-13T11:39:39;98533.53;;;15.63;81.09
55070;BME280;40967;52.070;8.596;2023-03-13T11:47:57;98527.69;;;15.49;81.62
55070;BME280;40967;52.070;8.596;2023-03-13T11:50:45;98525.91;;;15.57;81.71
55070;BME280;40967;52.070;8.596;2023-03-13T11:53:27;98512.81;;;15.62;80.31
55070;BME280;40967;52.070;8.596;2023-03-13T11:56:04;98527.66;;;15.77;78.35
55070;BME280;40967;52.070;8.596;2023-03-13T12:01:27;98512.47;;;15.79;76.34
55070;BME280;40967;52.070;8.596;2023-03-13T12:06:39;98521.00;;;15.78;75.82
55070;BME280;40967;52.070;8.596;2023-03-13T12:09:14;98511.25;;;15.77;76.40
55070;BME280;40967;52.070;8.596;2023-03-13T12:12:00;98484.25;;;15.75;77.34
55070;BME280;40967;52.070;8.596;2023-03-13T12:14:35;98498.78;;;15.95;76.81
55070;BME280;40967;52.070;8.596;2023-03-13T12:17:08;98497.19;;;16.10;75.70
55070;BME280;40967;52.070;8.596;2023-03-13T12:19:45;98483.16;;;16.11;75.12
55070;BME280;40967;52.070;8.596;2023-03-13T12:22:19;98476.38;;;16.21;74.69
55070;BME280;40967;52.070;8.596;2023-03-13T12:25:00;98483.31;;;16.34;74.51
55070;BME280;40967;52.070;8.596;2023-03-13T12:27:31;98492.84;;;16.40;73.20
55070;BME280;40967;52.070;8.596;2023-03-13T12:30:06;98476.69;;;16.35;72.80
55070;BME280;40967;52.070;8.596;2023-03-13T12:32:44;98476.81;;;16.23;72.38
55070;BME280;40967;52.070;8.596;2023-03-13T12:35:20;98448.41;;;16.12;72.89
55070;BME280;40967;52.070;8.596;2023-03-13T12:37:57;98470.09;;;16.20;73.29
55070;BME280;40967;52.070;8.596;2023-03-13T12:43:31;98448.31;;;16.08;71.33
55070;BME280;40967;52.070;8.596;2023-03-13T12:59:45;98427.16;;;16.05;69.03
55070;BME280;40967;52.070;8.596;2023-03-13T13:02:15;98401.47;;;15.94;69.43
55070;BME280;40967;52.070;8.596;2023-03-13T13:04:45;98414.25;;;16.06;69.64
55070;BME280;40967;52.070;8.596;2023-03-13T13:07:27;98421.41;;;16.10;69.28
55070;BME280;40967;52.070;8.596;2023-03-13T13:12:42;98418.41;;;16.00;66.96
55070;BME280;40967;52.070;8.596;2023-03-13T13:15:18;98400.56;;;16.06;67.10
55070;BME280;40967;52.070;8.596;2023-03-13T13:17:59;98385.91;;;16.14;66.55
55070;BME280;40967;52.070;8.596;2023-03-13T13:23:35;98398.59;;;16.22;65.83
55070;BME280;40967;52.070;8.596;2023-03-13T13:28:59;98387.81;;;16.29;64.60
55070;BME280;40967;52.070;8.596;2023-03-13T13:31:54;98391.72;;;16.28;64.36
55070;BME280;40967;52.070;8.596;2023-03-13T13:36:53;98387.72;;;16.25;63.98
55070;BME280;40967;52.070;8.596;2023-03-13T13:39:42;98383.91;;;16.30;64.17
55070;BME280;40967;52.070;8.596;2023-03-13T13:45:43;98378.38;;;16.26;64.34
55070;BME280;40967;52.070;8.596;2023-03-13T13:47:48;98375.56;;;16.23;64.91
55070;BME280;40967;52.070;8.596;2023-03-13T13:50:21;98379.16;;;16.27;65.31
55070;BME280;40967;52.070;8.596;2023-03-13T13:52:49;98370.59;;;16.28;65.10
55070;BME280;40967;52.070;8.596;2023-03-13T13:58:08;98354.25;;;16.32;65.58
55070;BME280;40967;52.070;8.596;2023-03-13T14:00:41;98360.00;;;16.27;65.63
55070;BME280;40967;52.070;8.596;2023-03-13T14:03:39;98375.06;;;16.36;65.94
55070;BME280;40967;52.070;8.596;2023-03-13T14:06:22;98360.06;;;16.30;65.57
55070;BME280;40967;52.070;8.596;2023-03-13T14:08:51;98378.22;;;16.19;64.75
55070;BME280;40967;52.070;8.596;2023-03-13T14:11:27;98371.66;;;16.24;64.34
55070;BME280;40967;52.070;8.596;2023-03-13T14:14:16;98379.34;;;16.18;63.67
55070;BME280;40967;52.070;8.596;2023-03-13T14:16:55;98382.91;;;16.19;63.98
55070;BME280;40967;52.070;8.596;2023-03-13T14:19:27;98368.13;;;16.23;63.38
55070;BME280;40967;52.070;8.596;2023-03-13T14:22:09;98352.28;;;16.13;63.17
55070;BME280;40967;52.070;8.596;2023-03-13T14:24:36;98364.88;;;16.18;63.39